This is the latest recevied weather packets stored in our database for station/object OK1LPD-6. If no packets are shown the sender has not sent any weather packets the latest 10 day(s).
| Time | Temp. | Humidity | Pressure | Rain* | Wind** | Luminosity | Snow |
|---|---|---|---|---|---|---|---|
| 1777700744 | 12.22° C | 64% | 1025.5 hPa | 0 mm | - | - | - |
| 1777700127 | 11.11° C | 66% | 1025.5 hPa | 0 mm | - | - | - |
| 1777699527 | 10° C | 68% | 1025.3 hPa | 0 mm | - | - | - |
| 1777698943 | 10° C | 65% | 1025.4 hPa | 0 mm | - | - | - |
| 1777698327 | 10.56° C | 66% | 1025.4 hPa | 0 mm | - | - | - |
| 1777697728 | 10.56° C | 67% | 1025.3 hPa | 0 mm | - | - | - |
| 1777697138 | 10° C | 71% | 1025.4 hPa | 0 mm | - | - | - |
| 1777696527 | 8.89° C | 74% | 1025.4 hPa | 0 mm | - | - | - |
| 1777695928 | 8.33° C | 81% | 1025.4 hPa | 0 mm | - | - | - |
| 1777695339 | 6.67° C | 90% | 1025.4 hPa | 0 mm | - | - | - |
| 1777694127 | 5° C | 91% | 1025.3 hPa | 0 mm | - | - | - |
| 1777693537 | 4.44° C | 90% | 1025.3 hPa | 0 mm | - | - | - |
| 1777692927 | 4.44° C | 90% | 1025.2 hPa | 0 mm | - | - | - |
| 1777692327 | 4.44° C | 90% | 1025.3 hPa | 0 mm | - | - | - |
| 1777691739 | 5° C | 90% | 1025.5 hPa | 0 mm | - | - | - |
| 1777691128 | 5° C | 89% | 1025.3 hPa | 0 mm | - | - | - |
| 1777690528 | 5° C | 88% | 1025.4 hPa | 0 mm | - | - | - |
| 1777689938 | 5° C | 87% | 1025.4 hPa | 0 mm | - | - | - |
| 1777689328 | 5.56° C | 88% | 1025.5 hPa | 0 mm | - | - | - |
| 1777688728 | 5.56° C | 89% | 1025.3 hPa | 0 mm | - | - | - |
| 1777688140 | 5.56° C | 89% | 1025.5 hPa | 0 mm | - | - | - |
| 1777687528 | 5.56° C | 87% | 1025.5 hPa | 0 mm | - | - | - |
| 1777686929 | 5.56° C | 86% | 1025.6 hPa | 0 mm | - | - | - |
| 1777686339 | 5.56° C | 86% | 1025.5 hPa | 0 mm | - | - | - |
| 1777685729 | 6.11° C | 86% | 1025.6 hPa | 0 mm | - | - | - |
* Rain latest hour (hover to see other rain measurements)
** Current wind speed in m/s (hover to see current wind gust speed)